createdAt,value
2023-05-25T00:00:00.861Z,4.18
2023-05-25T00:05:02.545Z,4.25
2023-05-25T00:10:06.258Z,4.07
2023-05-25T00:15:08.455Z,4.22
2023-05-25T00:20:11.006Z,3.95
2023-05-25T00:25:12.820Z,4.50
2023-05-25T00:30:15.066Z,4.70
2023-05-25T00:35:16.812Z,4.05
2023-05-25T00:40:22.048Z,4.03
2023-05-25T00:45:23.669Z,4.60
2023-05-25T00:50:38.099Z,4.93
2023-05-25T00:55:51.616Z,4.88
2023-05-25T01:00:58.946Z,4.68
2023-05-25T01:06:02.655Z,4.88
2023-05-25T01:11:06.618Z,5.43
2023-05-25T01:16:09.704Z,4.50
2023-05-25T01:21:20.486Z,5.40
2023-05-25T01:26:27.153Z,5.15
2023-05-25T01:31:30.352Z,5.03
2023-05-25T01:36:33.310Z,5.72
2023-05-25T01:41:34.942Z,4.90
2023-05-25T01:46:41.165Z,5.85
2023-05-25T01:52:11.935Z,5.50
2023-05-25T01:57:16.854Z,5.75
2023-05-25T02:02:21.014Z,4.97
2023-05-25T02:07:23.268Z,5.57
2023-05-25T02:12:25.457Z,5.65
2023-05-25T02:17:28.789Z,7.10
2023-05-25T02:22:31.507Z,5.88
2023-05-25T02:27:33.362Z,5.50
2023-05-25T02:32:35.949Z,4.93
2023-05-25T02:37:37.957Z,5.88
2023-05-25T02:42:39.824Z,5.85
2023-05-25T02:47:41.488Z,5.78
2023-05-25T02:52:43.819Z,5.45
2023-05-25T02:57:45.612Z,5.32
2023-05-25T03:02:58.265Z,5.63
2023-05-25T03:08:00.683Z,5.47
2023-05-25T03:13:05.755Z,5.50
2023-05-25T03:18:08.035Z,5.93
2023-05-25T03:23:12.813Z,6.05
2023-05-25T03:28:14.892Z,5.45
2023-05-25T03:33:16.634Z,5.00
2023-05-25T03:38:22.455Z,5.68
2023-05-25T03:43:24.308Z,5.88
2023-05-25T03:48:26.342Z,5.03
2023-05-25T03:53:28.220Z,5.00
2023-05-25T03:58:29.991Z,5.80
2023-05-25T04:03:33.033Z,6.05
2023-05-25T04:08:34.989Z,5.80
2023-05-25T04:13:36.917Z,5.63
2023-05-25T04:18:39.709Z,6.00
2023-05-25T04:23:41.456Z,5.43
2023-05-25T04:28:43.924Z,6.70
2023-05-25T04:33:56.243Z,6.43
2023-05-25T04:39:07.478Z,6.13
2023-05-25T04:44:15.834Z,5.18
2023-05-25T04:49:21.534Z,5.53
2023-05-25T04:54:23.345Z,6.03
2023-05-25T04:59:25.697Z,6.65
2023-05-25T05:04:27.411Z,6.10
2023-05-25T05:09:29.770Z,6.07
2023-05-25T05:14:34.116Z,6.97
2023-05-25T05:19:36.051Z,8.60
2023-05-25T05:24:38.933Z,7.40
2023-05-25T05:29:40.991Z,6.68
2023-05-25T05:34:42.934Z,5.35
2023-05-25T05:39:56.608Z,5.22
2023-05-25T05:44:58.508Z,5.47
2023-05-25T05:50:00.277Z,5.60
2023-05-25T05:55:03.876Z,6.20
2023-05-25T06:00:07.085Z,5.82
2023-05-25T06:05:20.841Z,5.25
2023-05-25T06:10:22.997Z,4.95
2023-05-25T06:15:26.038Z,5.13
2023-05-25T06:20:31.997Z,5.70
2023-05-25T06:25:33.736Z,5.82
2023-05-25T06:30:35.635Z,6.13
2023-05-25T06:35:38.361Z,6.38
2023-05-25T06:40:40.320Z,5.97
2023-05-25T06:45:42.454Z,5.25
2023-05-25T06:50:46.129Z,5.03
2023-05-25T06:55:49.960Z,5.28
2023-05-25T07:00:51.616Z,5.93
2023-05-25T07:05:53.297Z,4.47
2023-05-25T07:10:54.947Z,5.13
2023-05-25T07:15:56.839Z,4.90
2023-05-25T07:20:59.387Z,3.92
2023-05-25T07:26:01.668Z,4.15
2023-05-25T07:31:04.644Z,4.43
2023-05-25T07:36:06.703Z,3.45
2023-05-25T07:41:08.670Z,3.50
2023-05-25T07:46:11.056Z,4.18
2023-05-25T07:51:12.770Z,3.38
2023-05-25T07:56:14.629Z,3.85
2023-05-25T08:01:16.349Z,3.83
2023-05-25T08:06:20.845Z,4.25
2023-05-25T08:11:27.703Z,3.92
2023-05-25T08:16:29.517Z,3.45
2023-05-25T08:21:35.060Z,4.82
2023-05-25T08:26:53.756Z,4.22
2023-05-25T08:31:56.268Z,4.05
2023-05-25T08:36:58.071Z,4.18
2023-05-25T08:42:00.015Z,4.03
2023-05-25T08:47:07.007Z,4.82
2023-05-25T08:52:13.509Z,5.00
2023-05-25T08:57:20.489Z,3.53
2023-05-25T09:02:46.567Z,3.75
2023-05-25T09:07:51.681Z,4.00
2023-05-25T09:12:55.059Z,4.00
2023-05-25T09:17:56.978Z,2.75
2023-05-25T09:23:00.624Z,4.82
2023-05-25T09:28:10.114Z,4.40
2023-05-25T09:33:24.088Z,4.45
2023-05-25T09:38:26.074Z,5.00
2023-05-25T09:43:40.627Z,4.32
2023-05-25T09:48:45.651Z,4.68
2023-05-25T09:53:52.567Z,5.63
2023-05-25T09:58:54.410Z,5.22
2023-05-25T10:04:04.813Z,5.30
2023-05-25T10:09:09.026Z,4.80
2023-05-25T10:14:14.731Z,4.25
2023-05-25T10:19:23.089Z,4.80
2023-05-25T10:24:34.514Z,6.60
2023-05-25T10:29:39.802Z,3.45
2023-05-25T10:34:42.227Z,3.50
2023-05-25T10:39:45.547Z,2.85
2023-05-25T10:44:48.009Z,3.33
2023-05-25T10:49:55.904Z,3.55
2023-05-25T10:55:01.854Z,2.88
2023-05-25T11:00:08.949Z,2.95
2023-05-25T11:05:26.060Z,2.97
2023-05-25T11:10:55.335Z,3.17
2023-05-25T11:16:22.196Z,3.15
2023-05-25T11:21:32.670Z,2.88
2023-05-25T11:26:34.819Z,3.47
2023-05-25T11:31:41.497Z,2.72
2023-05-25T11:36:45.698Z,3.70
2023-05-25T11:42:02.164Z,3.08
2023-05-25T11:47:09.825Z,2.90
2023-05-25T11:52:13.432Z,3.33
2023-05-25T11:57:19.102Z,3.13
2023-05-25T12:02:21.830Z,4.15
2023-05-25T12:07:24.324Z,2.72
2023-05-25T12:12:26.188Z,6.88
2023-05-25T12:17:28.122Z,3.47
2023-05-25T12:22:29.927Z,4.43
2023-05-25T12:27:34.118Z,3.67
2023-05-25T12:32:51.800Z,3.67
2023-05-25T12:38:19.880Z,3.58
2023-05-25T12:43:21.759Z,3.75
2023-05-25T12:48:27.902Z,5.65
2023-05-25T12:53:31.251Z,3.53
2023-05-25T12:58:33.319Z,3.90
2023-05-25T13:03:35.004Z,3.83
2023-05-25T13:08:36.878Z,3.67
2023-05-25T13:13:38.634Z,4.30
2023-05-25T13:18:40.395Z,4.28
2023-05-25T13:23:42.074Z,4.10
2023-05-25T13:28:43.895Z,4.45
2023-05-25T13:33:45.607Z,5.30
2023-05-25T13:38:47.218Z,3.95
2023-05-25T13:43:50.511Z,4.38
2023-05-25T13:48:52.171Z,3.45
2023-05-25T13:53:54.077Z,3.35
2023-05-25T13:58:55.746Z,4.28
2023-05-25T14:03:59.810Z,3.50
2023-05-25T14:09:01.721Z,4.05
2023-05-25T14:14:04.347Z,4.07
2023-05-25T14:19:07.106Z,4.45
2023-05-25T14:24:08.979Z,4.60
2023-05-25T14:29:12.976Z,3.95
2023-05-25T14:34:14.783Z,4.93
2023-05-25T14:39:17.369Z,4.10
2023-05-25T14:44:19.750Z,4.05
2023-05-25T14:49:24.803Z,4.28
2023-05-25T14:54:28.602Z,3.63
2023-05-25T14:59:30.301Z,3.60
2023-05-25T15:04:32.032Z,4.43
2023-05-25T15:09:33.979Z,4.03
2023-05-25T15:14:39.869Z,3.38
2023-05-25T15:19:41.533Z,4.78
2023-05-25T15:24:43.154Z,4.65
2023-05-25T15:29:45.975Z,3.53
2023-05-25T15:34:47.747Z,4.90
2023-05-25T15:39:49.740Z,4.28
2023-05-25T15:44:52.449Z,4.45
2023-05-25T15:49:54.134Z,3.63
2023-05-25T15:54:55.877Z,4.05
2023-05-25T15:59:57.506Z,4.03
2023-05-25T16:04:59.228Z,4.40
2023-05-25T16:10:00.934Z,3.83
2023-05-25T16:15:02.494Z,5.10
2023-05-25T16:20:04.902Z,4.80
2023-05-25T16:25:07.211Z,4.88
2023-05-25T16:30:11.089Z,4.93
2023-05-25T16:35:14.312Z,4.45
2023-05-25T16:40:16.505Z,4.90
2023-05-25T16:45:21.032Z,6.10
2023-05-25T16:50:22.741Z,5.72
2023-05-25T16:55:25.493Z,5.55
2023-05-25T17:00:27.176Z,4.90
2023-05-25T17:05:28.825Z,6.13
2023-05-25T17:10:30.456Z,4.75
2023-05-25T17:15:32.124Z,5.40
2023-05-25T17:20:33.962Z,5.15
2023-05-25T17:25:35.824Z,5.00
2023-05-25T17:30:37.445Z,5.75
2023-05-25T17:35:39.564Z,5.20
2023-05-25T17:40:41.267Z,5.60
2023-05-25T17:45:43.274Z,5.90
2023-05-25T17:50:45.296Z,5.22
2023-05-25T17:55:47.355Z,7.18
2023-05-25T18:00:52.653Z,5.20
2023-05-25T18:05:54.471Z,5.40
2023-05-25T18:10:56.378Z,6.47
2023-05-25T18:15:58.216Z,4.70
2023-05-25T18:21:00.244Z,5.97
2023-05-25T18:26:01.992Z,5.05
2023-05-25T18:31:03.727Z,4.55
2023-05-25T18:36:05.604Z,4.90
2023-05-25T18:41:07.286Z,5.38
2023-05-25T18:46:08.984Z,5.00
2023-05-25T18:51:11.093Z,4.20
2023-05-25T18:56:12.747Z,4.75
2023-05-25T19:01:14.451Z,4.72
2023-05-25T19:06:16.205Z,5.38
2023-05-25T19:11:20.039Z,4.55
2023-05-25T19:16:21.712Z,4.35
2023-05-25T19:21:23.406Z,4.93
2023-05-25T19:26:26.138Z,4.60
2023-05-25T19:31:27.791Z,4.85
2023-05-25T19:36:29.756Z,4.85
2023-05-25T19:41:31.559Z,4.47
2023-05-25T19:46:33.721Z,4.55
2023-05-25T19:51:36.796Z,5.03
2023-05-25T19:56:38.438Z,4.78
2023-05-25T20:01:40.236Z,4.60
2023-05-25T20:06:41.917Z,4.50
2023-05-25T20:11:43.894Z,5.30
2023-05-25T20:16:45.766Z,5.00
2023-05-25T20:21:49.633Z,5.38
2023-05-25T20:26:56.728Z,5.50
2023-05-25T20:31:58.762Z,4.25
2023-05-25T20:37:01.042Z,4.68
2023-05-25T20:42:02.884Z,4.75
2023-05-25T20:47:05.203Z,4.75
2023-05-25T20:52:08.230Z,5.78
2023-05-25T20:57:11.975Z,4.45
2023-05-25T21:02:13.770Z,4.20
2023-05-25T21:07:15.748Z,4.38
2023-05-25T21:12:17.494Z,5.28
2023-05-25T21:17:20.892Z,5.50
2023-05-25T21:22:22.997Z,4.72
2023-05-25T21:27:24.715Z,5.03
2023-05-25T21:32:26.403Z,5.07
2023-05-25T21:37:28.288Z,4.10
2023-05-25T21:42:29.979Z,4.68
2023-05-25T21:47:31.620Z,4.63
2023-05-25T21:52:33.312Z,5.13
2023-05-25T21:57:34.977Z,5.30
2023-05-25T22:02:36.676Z,4.38
2023-05-25T22:07:39.547Z,4.45
2023-05-25T22:12:41.152Z,4.43
2023-05-25T22:17:42.864Z,4.93
2023-05-25T22:22:45.000Z,4.78
2023-05-25T22:27:46.713Z,6.20
2023-05-25T22:32:48.361Z,4.57
2023-05-25T22:37:50.580Z,3.75
2023-05-25T22:42:52.304Z,6.97
2023-05-25T22:47:54.463Z,4.10
2023-05-25T22:52:56.199Z,3.90
2023-05-25T22:57:57.852Z,4.88
2023-05-25T23:03:00.998Z,4.45
2023-05-25T23:08:04.751Z,5.05
2023-05-25T23:13:07.610Z,5.15
2023-05-25T23:18:09.303Z,4.63
2023-05-25T23:23:10.973Z,4.03
2023-05-25T23:28:12.619Z,4.65
2023-05-25T23:33:14.307Z,4.20
2023-05-25T23:38:16.204Z,5.75
2023-05-25T23:43:17.978Z,3.75
2023-05-25T23:48:20.107Z,4.60
2023-05-25T23:53:21.769Z,4.28
2023-05-25T23:58:23.843Z,3.97
